Time;durP1;ratioP1;P1;durP2;ratioP2;P2;SDS_P1;SDS_P2;PMS_P1;PMS_P2;Temp;Humidity;BMP_temperature;BMP_pressure;BME280_temperature;BME280_humidity;BME280_pressure;Samples;Min_cycle;Max_cycle;Signal;HPM_P1;HPM_P2
2023/01/04 00:01:14;;;;;;;10.15;3.17;;;7.70;99.90;;;;;;5012881;28;20058;-78
2023/01/04 00:03:40;;;;;;;12.50;3.30;;;7.70;99.90;;;;;;4993504;28;20049;-79
2023/01/04 00:06:07;;;;;;;12.55;3.20;;;7.70;99.90;;;;;;4976934;28;20076;-79
2023/01/04 00:08:33;;;;;;;8.95;2.97;;;7.70;99.90;;;;;;4993239;28;20121;-79
2023/01/04 00:11:12;;;;;;;8.15;3.22;;;7.70;99.90;;;;;;4977298;28;20054;-85
2023/01/04 00:13:38;;;;;;;10.60;3.20;;;7.70;99.90;;;;;;4993608;28;20054;-79
2023/01/04 00:16:07;;;;;;;11.05;3.38;;;7.70;99.90;;;;;;4994019;28;20053;-79
2023/01/04 00:18:34;;;;;;;10.85;3.20;;;7.70;99.90;;;;;;4981604;28;20046;-79
2023/01/04 00:21:06;;;;;;;10.75;3.50;;;7.80;99.90;;;;;;4985058;28;20058;-83
2023/01/04 00:23:32;;;;;;;14.88;3.40;;;7.80;99.90;;;;;;4970616;28;20069;-80
2023/01/04 00:25:58;;;;;;;10.45;3.15;;;7.80;99.90;;;;;;4958144;28;20424;-79
2023/01/04 00:28:23;;;;;;;8.38;2.97;;;7.80;99.90;;;;;;4989361;28;20052;-79
2023/01/04 00:30:49;;;;;;;5.70;3.03;;;7.90;99.90;;;;;;4983469;28;20043;-81
2023/01/04 00:33:14;;;;;;;8.10;3.03;;;7.90;99.90;;;;;;4973865;28;20121;-78
2023/01/04 00:35:40;;;;;;;11.20;3.35;;;7.90;99.90;;;;;;4961497;28;20045;-79
2023/01/04 00:38:06;;;;;;;8.05;3.30;;;7.90;99.90;;;;;;4960743;28;20053;-78
2023/01/04 00:40:33;;;;;;;7.78;3.33;;;7.80;99.90;;;;;;4993445;28;20041;-79
2023/01/04 00:42:58;;;;;;;10.55;3.33;;;7.80;99.90;;;;;;4961510;28;20056;-79
2023/01/04 00:45:24;;;;;;;13.75;4.60;;;7.70;99.90;;;;;;4993169;28;20062;-79
2023/01/04 00:47:50;;;;;;;10.60;4.13;;;7.70;99.90;;;;;;4960725;28;20064;-79
2023/01/04 00:50:15;;;;;;;16.92;4.30;;;7.60;99.90;;;;;;4969953;28;20041;-79
2023/01/04 00:52:41;;;;;;;9.55;4.18;;;7.50;99.90;;;;;;4977502;28;20062;-80
2023/01/04 00:55:07;;;;;;;10.50;4.32;;;7.40;99.90;;;;;;4966973;28;20466;-81
2023/01/04 00:57:33;;;;;;;14.10;4.50;;;7.40;99.90;;;;;;4974226;28;20084;-79
2023/01/04 00:59:58;;;;;;;8.15;4.00;;;7.40;99.90;;;;;;4993914;28;20496;-79
2023/01/04 01:02:24;;;;;;;10.05;4.28;;;7.40;99.90;;;;;;4991407;28;20054;-79
2023/01/04 01:04:50;;;;;;;9.38;4.50;;;7.40;99.90;;;;;;4968785;28;20399;-78
2023/01/04 01:07:15;;;;;;;8.15;4.03;;;7.30;99.90;;;;;;4991518;28;20038;-79
2023/01/04 01:09:41;;;;;;;13.40;5.15;;;7.40;99.90;;;;;;4967426;28;20133;-80
2023/01/04 01:12:07;;;;;;;10.65;4.07;;;7.30;99.90;;;;;;4960625;28;20050;-85
2023/01/04 01:14:32;;;;;;;11.68;4.75;;;7.40;99.90;;;;;;4979935;28;20048;-79
2023/01/04 01:16:58;;;;;;;12.35;4.70;;;7.30;99.90;;;;;;4967310;28;20058;-79
2023/01/04 01:19:26;;;;;;;9.35;4.45;;;7.40;99.90;;;;;;4961150;28;20104;-79
2023/01/04 01:21:52;;;;;;;11.02;4.25;;;7.40;99.90;;;;;;4989759;28;20050;-80
2023/01/04 01:24:19;;;;;;;9.45;3.92;;;7.40;99.90;;;;;;4986158;28;20057;-79
2023/01/04 01:26:45;;;;;;;10.98;4.13;;;7.40;99.90;;;;;;4995091;28;20176;-79
2023/01/04 01:29:10;;;;;;;16.25;4.90;;;7.40;99.90;;;;;;4979916;28;20411;-83
2023/01/04 01:31:36;;;;;;;9.75;4.20;;;7.40;99.90;;;;;;4996620;28;20057;-80
2023/01/04 01:34:02;;;;;;;13.88;4.57;;;7.40;99.90;;;;;;4996473;28;20446;-81
2023/01/04 01:36:28;;;;;;;10.88;4.55;;;7.50;99.90;;;;;;4983965;28;20131;-79
2023/01/04 01:38:54;;;;;;;8.40;3.97;;;7.50;99.90;;;;;;4986595;28;20051;-81
2023/01/04 01:41:26;;;;;;;12.43;4.95;;;7.50;99.90;;;;;;4979677;28;20042;-80
2023/01/04 01:44:29;;;;;;;12.68;5.00;;;7.50;99.90;;;;;;4979757;28;20104;-80
2023/01/04 01:46:55;;;;;;;11.02;5.13;;;7.50;99.90;;;;;;4969882;28;20104;-82
2023/01/04 01:49:26;;;;;;;9.25;4.80;;;7.50;99.90;;;;;;4961183;28;20074;-80
2023/01/04 01:51:54;;;;;;;9.68;4.70;;;7.50;99.90;;;;;;4995660;28;20057;-82
2023/01/04 01:54:25;;;;;;;10.35;4.90;;;7.60;99.90;;;;;;4978350;28;20076;-79
2023/01/04 01:56:54;;;;;;;12.15;5.20;;;7.60;99.90;;;;;;4995495;28;20057;-80
2023/01/04 01:59:21;;;;;;;7.60;4.53;;;7.60;99.90;;;;;;4994686;28;20049;-79
2023/01/04 02:01:47;;;;;;;8.13;5.25;;;7.60;99.90;;;;;;4978889;28;20049;-81
2023/01/04 02:04:14;;;;;;;12.25;6.00;;;7.60;99.90;;;;;;4975586;28;20057;-82
2023/01/04 02:06:52;;;;;;;14.98;5.22;;;7.60;99.90;;;;;;4988007;28;20045;-79
2023/01/04 02:09:19;;;;;;;9.23;4.82;;;7.60;99.90;;;;;;4986322;28;20057;-79
2023/01/04 02:11:45;;;;;;;13.30;5.53;;;7.70;99.90;;;;;;4998679;28;20136;-78
2023/01/04 02:14:27;;;;;;;12.05;5.20;;;7.70;99.90;;;;;;4964200;28;20078;-78
2023/01/04 02:16:56;;;;;;;12.73;5.50;;;7.70;99.90;;;;;;4991338;28;20370;-78
2023/01/04 02:19:52;;;;;;;11.20;5.30;;;7.70;99.90;;;;;;4993943;28;20248;-77
2023/01/04 02:22:42;;;;;;;7.70;3.90;;;7.70;99.90;;;;;;4983761;28;20125;-80
2023/01/04 02:25:11;;;;;;;8.00;4.22;;;7.70;99.90;;;;;;4977833;28;20050;-78
2023/01/04 02:27:56;;;;;;;11.00;5.13;;;7.80;99.90;;;;;;5001728;28;20129;-81
2023/01/04 02:30:43;;;;;;;14.38;5.13;;;7.80;99.90;;;;;;4992875;28;20057;-79
2023/01/04 02:33:32;;;;;;;8.75;4.88;;;7.80;99.90;;;;;;4978611;28;20049;-78
2023/01/04 02:36:24;;;;;;;14.07;5.20;;;7.80;99.90;;;;;;4991959;28;20069;-78
2023/01/04 02:39:16;;;;;;;9.95;4.88;;;7.80;99.90;;;;;;4979090;28;20054;-78
2023/01/04 02:42:14;;;;;;;8.82;4.90;;;7.80;99.90;;;;;;4972523;28;20057;-78
2023/01/04 02:45:03;;;;;;;11.10;4.28;;;7.90;99.90;;;;;;4975104;28;20054;-78
2023/01/04 02:50:30;;;;;;;8.63;3.30;;;7.90;99.90;;;;;;4994787;28;20112;-84
2023/01/04 02:53:09;;;;;;;7.57;4.28;;;7.90;99.90;;;;;;4994244;28;20121;-78
2023/01/04 02:56:13;;;;;;;4.97;3.00;;;7.90;99.90;;;;;;4993695;28;20089;-78
2023/01/04 02:59:22;;;;;;;6.53;3.80;;;8.00;99.90;;;;;;4963533;28;20137;-78
2023/01/04 03:08:31;;;;;;;6.40;3.80;;;8.00;99.90;;;;;;4987029;28;20108;-78
2023/01/04 03:11:03;;;;;;;9.55;4.68;;;8.10;99.90;;;;;;4991099;28;20101;-80
2023/01/04 03:13:39;;;;;;;5.63;3.88;;;8.10;99.90;;;;;;4960220;28;20507;-78
2023/01/04 03:16:17;;;;;;;6.90;4.78;;;8.10;99.90;;;;;;4963657;28;20543;-80
2023/01/04 03:18:49;;;;;;;9.85;5.07;;;8.10;99.90;;;;;;4980664;28;20057;-78
2023/01/04 03:21:17;;;;;;;8.43;4.43;;;8.20;99.90;;;;;;4994145;28;20053;-78
2023/01/04 03:35:45;;;;;;;4.93;2.28;;;8.40;99.90;;;;;;4992848;28;20685;-79
2023/01/04 03:50:12;;;;;;;4.05;2.67;;;8.70;99.90;;;;;;4993738;28;20049;-80
2023/01/04 03:52:40;;;;;;;7.35;3.90;;;8.80;99.90;;;;;;4993973;28;20400;-80
2023/01/04 03:55:08;;;;;;;10.35;3.92;;;8.90;99.90;;;;;;4976691;28;20120;-79
2023/01/04 03:57:35;;;;;;;7.28;4.15;;;8.80;99.90;;;;;;4976865;28;20048;-78
2023/01/04 04:00:10;;;;;;;5.07;2.88;;;8.90;99.90;;;;;;4990230;28;20395;-79
2023/01/04 04:02:36;;;;;;;4.80;3.47;;;8.90;99.90;;;;;;4987770;28;20050;-79
2023/01/04 04:10:31;;;;;;;3.72;3.00;;;9.10;99.90;;;;;;4989408;28;20507;-84
2023/01/04 04:12:57;;;;;;;6.28;3.50;;;9.10;99.90;;;;;;4996319;28;20097;-79
2023/01/04 04:15:22;;;;;;;4.47;2.97;;;9.20;99.90;;;;;;4992373;28;20506;-84
2023/01/04 04:17:48;;;;;;;3.42;2.63;;;9.20;99.90;;;;;;4976127;28;20502;-79
2023/01/04 04:20:14;;;;;;;7.18;3.63;;;9.20;99.90;;;;;;4991950;28;20042;-79
2023/01/04 04:22:40;;;;;;;5.47;2.90;;;9.30;99.90;;;;;;4960472;28;20046;-79
2023/01/04 04:25:06;;;;;;;4.75;2.70;;;9.30;99.90;;;;;;4976038;28;20046;-79
2023/01/04 04:27:31;;;;;;;3.38;2.60;;;9.30;99.90;;;;;;4967071;28;20388;-79
2023/01/04 04:29:57;;;;;;;3.22;2.83;;;9.40;99.90;;;;;;4973291;28;20050;-79
2023/01/04 04:32:23;;;;;;;4.45;3.10;;;9.40;99.90;;;;;;4993047;28;20667;-80
2023/01/04 04:34:48;;;;;;;4.13;3.08;;;9.40;99.90;;;;;;4987473;28;20046;-78
2023/01/04 04:37:14;;;;;;;4.45;3.33;;;9.40;99.90;;;;;;4976725;28;20041;-78
2023/01/04 04:39:40;;;;;;;3.60;3.17;;;9.50;99.90;;;;;;4973768;28;20050;-79
2023/01/04 04:42:06;;;;;;;4.60;3.70;;;9.60;99.90;;;;;;4963280;28;20038;-78
2023/01/04 04:44:33;;;;;;;3.42;2.78;;;9.60;99.90;;;;;;4971202;28;20057;-79
2023/01/04 04:46:59;;;;;;;3.97;3.38;;;9.60;99.90;;;;;;4973600;28;20058;-78
2023/01/04 04:49:25;;;;;;;3.75;3.08;;;9.60;99.90;;;;;;4960878;28;20069;-80
2023/01/04 04:51:50;;;;;;;5.20;3.88;;;9.70;99.90;;;;;;4972214;28;20116;-79
2023/01/04 04:54:19;;;;;;;4.82;3.00;;;9.70;99.90;;;;;;4976027;28;20054;-84
2023/01/04 04:56:45;;;;;;;6.05;3.78;;;9.80;99.90;;;;;;4983080;28;20428;-79
2023/01/04 04:59:11;;;;;;;4.60;4.00;;;9.70;99.90;;;;;;4976325;28;20064;-79
2023/01/04 05:01:36;;;;;;;4.50;3.53;;;9.80;99.90;;;;;;4964386;28;20136;-78
2023/01/04 05:04:02;;;;;;;4.97;3.50;;;9.80;99.90;;;;;;4963184;28;20475;-79
2023/01/04 05:06:28;;;;;;;6.55;4.57;;;9.80;99.90;;;;;;4980294;28;20041;-79
2023/01/04 05:08:54;;;;;;;5.55;4.57;;;9.80;99.90;;;;;;4976924;28;20046;-79
2023/01/04 05:12:58;;;;;;;5.53;4.43;;;9.90;99.90;;;;;;4991906;28;20078;-79
2023/01/04 05:14:05;;;;;;;6.40;5.05;;;10.00;99.90;;;;;;4979670;28;20056;-79
2023/01/04 05:16:30;;;;;;;7.60;5.57;;;10.00;99.90;;;;;;4983987;28;20050;-79
2023/01/04 05:18:56;;;;;;;6.28;4.45;;;10.00;99.90;;;;;;4963084;28;20045;-79
2023/01/04 05:21:22;;;;;;;8.05;5.65;;;10.00;99.90;;;;;;4964032;28;20415;-82
2023/01/04 05:23:48;;;;;;;7.60;6.57;;;10.00;99.90;;;;;;4944589;28;20436;-79
2023/01/04 05:26:14;;;;;;;5.88;4.88;;;10.00;99.90;;;;;;4995862;28;20042;-79
2023/01/04 05:28:39;;;;;;;8.85;5.82;;;10.10;99.90;;;;;;4995491;28;20050;-79
2023/01/04 05:31:05;;;;;;;10.25;6.55;;;10.10;99.90;;;;;;4995245;28;20056;-80
2023/01/04 05:33:31;;;;;;;6.32;4.97;;;10.10;99.90;;;;;;4971121;28;20095;-79
2023/01/04 05:36:01;;;;;;;11.68;6.40;;;10.10;99.90;;;;;;4983628;28;20050;-78
2023/01/04 05:38:27;;;;;;;9.38;7.22;;;10.10;99.90;;;;;;4994385;28;20050;-76
2023/01/04 05:40:53;;;;;;;10.75;6.88;;;10.10;99.90;;;;;;4962914;28;20060;-80
2023/01/04 05:43:20;;;;;;;10.52;7.15;;;10.20;99.90;;;;;;4979025;28;20042;-80
2023/01/04 05:45:52;;;;;;;9.38;6.45;;;10.20;99.90;;;;;;4978603;28;20049;-85
2023/01/04 05:48:18;;;;;;;6.30;4.70;;;10.20;99.90;;;;;;4963013;28;20532;-81
2023/01/04 05:50:45;;;;;;;10.13;7.13;;;10.20;99.90;;;;;;4958847;28;20104;-86
2023/01/04 05:53:12;;;;;;;12.80;7.53;;;10.20;99.90;;;;;;4978549;28;20180;-80
2023/01/04 05:55:41;;;;;;;14.68;7.95;;;10.30;99.90;;;;;;4994352;28;20079;-82
2023/01/04 05:58:06;;;;;;;13.07;8.05;;;10.30;99.90;;;;;;4962381;28;20709;-80
2023/01/04 06:00:32;;;;;;;12.75;7.35;;;10.30;99.90;;;;;;4979121;28;20128;-83
2023/01/04 06:02:58;;;;;;;13.27;7.95;;;10.30;99.90;;;;;;4944979;28;20046;-80
2023/01/04 06:05:24;;;;;;;12.95;8.23;;;10.30;99.90;;;;;;4961512;28;20061;-82
2023/01/04 06:07:50;;;;;;;10.32;6.47;;;10.30;99.90;;;;;;4944054;28;20078;-79
2023/01/04 06:10:17;;;;;;;11.27;7.32;;;10.30;99.90;;;;;;4953596;28;20054;-79
2023/01/04 06:12:43;;;;;;;11.35;6.47;;;10.30;99.90;;;;;;4982974;28;20385;-79
2023/01/04 06:15:10;;;;;;;15.15;7.22;;;10.30;99.90;;;;;;4965734;28;20056;-79
2023/01/04 06:17:37;;;;;;;12.35;6.93;;;10.30;99.90;;;;;;4972406;28;20381;-79
2023/01/04 06:20:04;;;;;;;12.90;7.40;;;10.40;99.90;;;;;;4977693;28;20453;-80
2023/01/04 06:22:31;;;;;;;11.60;6.13;;;10.40;99.90;;;;;;4959476;28;20047;-80
2023/01/04 06:24:57;;;;;;;9.70;6.38;;;10.40;99.90;;;;;;4969405;28;20047;-79
2023/01/04 06:27:23;;;;;;;9.50;6.35;;;10.40;99.90;;;;;;4982973;28;20046;-80
2023/01/04 06:29:49;;;;;;;12.32;7.00;;;10.40;99.90;;;;;;4993348;28;20140;-79
2023/01/04 06:32:15;;;;;;;11.98;6.00;;;10.40;99.90;;;;;;4975021;28;20050;-80
2023/01/04 06:34:41;;;;;;;15.48;7.03;;;10.40;99.90;;;;;;4998578;28;20048;-78
2023/01/04 06:37:08;;;;;;;8.88;6.13;;;10.50;99.90;;;;;;4961562;28;20042;-80
2023/01/04 06:39:34;;;;;;;10.15;6.20;;;10.50;99.90;;;;;;4977800;28;20056;-79
2023/01/04 06:42:00;;;;;;;10.35;6.05;;;10.50;99.90;;;;;;4974788;28;20050;-81
2023/01/04 06:44:25;;;;;;;10.32;5.45;;;10.50;99.90;;;;;;4992875;28;20050;-79
2023/01/04 06:46:51;;;;;;;6.72;4.78;;;10.50;99.90;;;;;;4971168;28;20054;-80
2023/01/04 06:49:17;;;;;;;10.35;4.53;;;10.50;99.90;;;;;;4975038;28;20109;-79
2023/01/04 06:51:43;;;;;;;7.18;4.75;;;10.50;99.90;;;;;;4946537;28;20100;-80
2023/01/04 06:54:10;;;;;;;7.57;4.45;;;10.50;99.90;;;;;;4977295;28;20061;-80
2023/01/04 06:56:36;;;;;;;6.35;3.72;;;10.60;99.90;;;;;;4996275;28;20050;-79
2023/01/04 06:59:05;;;;;;;11.48;4.53;;;10.60;99.90;;;;;;4946951;28;20069;-83
2023/01/04 07:01:32;;;;;;;5.72;3.75;;;10.60;99.90;;;;;;4966871;28;20048;-79
2023/01/04 07:03:57;;;;;;;8.40;4.75;;;10.60;99.90;;;;;;4992077;28;20049;-80
2023/01/04 07:06:23;;;;;;;4.57;3.22;;;10.60;99.90;;;;;;4987221;28;20082;-80
2023/01/04 07:08:49;;;;;;;5.80;3.20;;;10.60;99.90;;;;;;4941741;28;20060;-78
2023/01/04 07:11:14;;;;;;;7.07;4.20;;;10.60;99.90;;;;;;4984960;28;20042;-79
2023/01/04 07:13:40;;;;;;;8.23;3.95;;;10.60;99.90;;;;;;4941434;28;20042;-81
2023/01/04 07:16:06;;;;;;;6.32;3.55;;;10.60;99.90;;;;;;4973679;28;20117;-79
2023/01/04 07:18:32;;;;;;;5.03;3.58;;;10.60;99.90;;;;;;4986257;28;20050;-81
2023/01/04 07:20:57;;;;;;;5.10;3.30;;;10.60;99.90;;;;;;4963597;28;20560;-85
2023/01/04 07:23:23;;;;;;;4.97;3.50;;;10.60;99.90;;;;;;4944913;28;20137;-80
2023/01/04 07:25:49;;;;;;;4.57;3.15;;;10.60;99.90;;;;;;4994316;28;20049;-78
2023/01/04 07:29:13;;;;;;;5.30;3.78;;;10.60;99.90;;;;;;4977576;28;20133;-78
2023/01/04 07:31:04;;;;;;;5.30;3.63;;;10.60;99.90;;;;;;4974145;28;20089;-81
2023/01/04 07:33:30;;;;;;;5.60;3.50;;;10.60;99.90;;;;;;4992890;28;20050;-78
2023/01/04 07:36:01;;;;;;;7.60;4.45;;;10.60;99.90;;;;;;4977626;28;20048;-79
2023/01/04 07:38:27;;;;;;;7.53;4.10;;;10.70;99.90;;;;;;4977210;28;20589;-81
2023/01/04 07:40:53;;;;;;;6.90;3.58;;;10.60;99.90;;;;;;4966519;28;20042;-78
2023/01/04 07:43:19;;;;;;;4.95;3.45;;;10.70;99.90;;;;;;4972536;28;20058;-80
2023/01/04 07:45:45;;;;;;;6.93;3.80;;;10.70;99.90;;;;;;4961790;28;20053;-78
2023/01/04 07:48:10;;;;;;;6.15;4.00;;;10.70;99.90;;;;;;4938326;28;20105;-78
2023/01/04 07:50:36;;;;;;;4.90;3.20;;;10.70;99.90;;;;;;4950681;28;20129;-79
2023/01/04 07:53:02;;;;;;;5.07;3.40;;;10.60;99.90;;;;;;4957338;28;20103;-84
2023/01/04 07:55:28;;;;;;;5.38;3.25;;;10.70;99.90;;;;;;4974258;28;20045;-79
2023/01/04 07:57:53;;;;;;;5.93;3.40;;;10.70;99.90;;;;;;4945068;28;20042;-79
2023/01/04 08:00:19;;;;;;;5.25;3.28;;;10.60;99.90;;;;;;4973669;28;20051;-78
2023/01/04 08:02:48;;;;;;;5.70;3.70;;;10.70;99.90;;;;;;4942200;28;20129;-77
2023/01/04 08:05:13;;;;;;;6.65;3.78;;;10.70;99.90;;;;;;4966265;28;20141;-79
2023/01/04 08:07:39;;;;;;;5.40;3.25;;;10.70;99.90;;;;;;4952672;28;20129;-78
2023/01/04 08:10:05;;;;;;;7.25;3.67;;;10.70;99.90;;;;;;4922539;28;20078;-84
2023/01/04 08:12:31;;;;;;;5.95;3.67;;;10.70;99.90;;;;;;4955522;28;20053;-78
2023/01/04 08:14:57;;;;;;;9.27;4.20;;;10.70;99.90;;;;;;4957036;28;20038;-78
2023/01/04 08:17:22;;;;;;;4.28;3.22;;;10.70;99.90;;;;;;4953074;28;20543;-80
2023/01/04 08:19:48;;;;;;;5.65;3.88;;;10.70;99.90;;;;;;4930904;28;20516;-78
2023/01/04 08:22:14;;;;;;;12.55;3.78;;;10.70;99.90;;;;;;4956528;28;20064;-78
2023/01/04 08:24:39;;;;;;;6.15;4.18;;;10.80;99.90;;;;;;4954639;28;20105;-78
2023/01/04 08:27:07;;;;;;;5.60;4.18;;;10.80;99.90;;;;;;4962682;28;20125;-83
2023/01/04 08:29:32;;;;;;;10.30;6.25;;;10.80;99.90;;;;;;4966063;28;20226;-79
2023/01/04 08:32:01;;;;;;;10.02;5.88;;;10.80;99.90;;;;;;4973020;28;20122;-78
2023/01/04 08:34:26;;;;;;;11.57;6.80;;;10.80;99.90;;;;;;4969462;28;20038;-78
2023/01/04 08:36:52;;;;;;;5.47;1.90;;;10.80;99.90;;;;;;4957386;28;20050;-80
2023/01/04 08:39:18;;;;;;;13.88;6.43;;;10.80;99.90;;;;;;4950374;28;20210;-78
2023/01/04 08:41:50;;;;;;;6.60;3.53;;;10.80;99.90;;;;;;4970395;28;20055;-78
2023/01/04 08:44:21;;;;;;;9.35;5.25;;;10.80;99.90;;;;;;4954903;28;20129;-84
2023/01/04 08:46:48;;;;;;;5.72;3.38;;;10.80;99.90;;;;;;4949360;28;20073;-77
2023/01/04 08:49:13;;;;;;;8.18;5.32;;;10.80;99.90;;;;;;4993170;28;20504;-79
2023/01/04 08:51:40;;;;;;;8.90;5.72;;;10.80;99.90;;;;;;4969746;28;20050;-77
2023/01/04 08:54:06;;;;;;;6.95;3.47;;;10.90;99.90;;;;;;4954690;28;20046;-78
2023/01/04 08:56:32;;;;;;;6.28;3.70;;;10.80;99.90;;;;;;4992159;28;20060;-77
2023/01/04 08:58:57;;;;;;;5.47;3.10;;;10.90;99.90;;;;;;4974669;28;20072;-79
2023/01/04 09:01:23;;;;;;;5.13;3.55;;;10.90;99.90;;;;;;4980177;28;20081;-82
2023/01/04 09:03:49;;;;;;;5.85;3.58;;;10.90;99.90;;;;;;4993010;28;20061;-78
2023/01/04 09:06:23;;;;;;;4.35;3.28;;;10.90;99.90;;;;;;4964550;28;20043;-78
2023/01/04 09:08:48;;;;;;;5.55;2.92;;;10.90;99.90;;;;;;4992561;28;20046;-78
2023/01/04 09:11:17;;;;;;;4.97;3.20;;;10.90;99.90;;;;;;4976408;28;20049;-78
2023/01/04 09:13:43;;;;;;;5.15;2.45;;;10.90;99.90;;;;;;4991902;28;20051;-80
2023/01/04 09:16:11;;;;;;;5.00;2.90;;;10.90;99.90;;;;;;4983639;28;20493;-78
2023/01/04 09:18:38;;;;;;;5.03;3.50;;;11.00;99.90;;;;;;4970107;28;20059;-79
2023/01/04 09:21:09;;;;;;;5.88;3.00;;;11.00;99.90;;;;;;4966920;28;20051;-78
2023/01/04 09:23:36;;;;;;;7.25;4.40;;;11.00;99.90;;;;;;4975255;28;20039;-77
2023/01/04 09:26:06;;;;;;;1.88;1.45;;;10.90;99.90;;;;;;4941341;28;20058;-77
2023/01/04 09:28:32;;;;;;;2.83;2.03;;;10.90;99.90;;;;;;4970944;28;20089;-78
2023/01/04 09:31:03;;;;;;;3.17;2.00;;;10.90;99.90;;;;;;4968319;28;20078;-79
2023/01/04 09:33:29;;;;;;;2.42;2.20;;;10.90;99.90;;;;;;4975285;28;20097;-78
2023/01/04 09:35:54;;;;;;;6.82;2.33;;;10.90;99.90;;;;;;4974533;28;20043;-78
2023/01/04 09:38:20;;;;;;;3.08;1.63;;;11.00;99.90;;;;;;4986702;28;20150;-78
2023/01/04 09:41:04;;;;;;;2.25;1.70;;;11.00;99.90;;;;;;4948516;28;20050;-78
2023/01/04 09:43:48;;;;;;;2.45;1.52;;;11.00;99.90;;;;;;4978797;28;20057;-78
2023/01/04 09:46:40;;;;;;;1.73;1.38;;;10.90;99.90;;;;;;4978401;28;20062;-78
2023/01/04 09:49:12;;;;;;;1.75;1.38;;;11.00;99.90;;;;;;4979270;28;20058;-78
2023/01/04 09:51:41;;;;;;;3.15;1.60;;;10.90;99.90;;;;;;4978293;28;20133;-78
2023/01/04 09:54:15;;;;;;;2.63;1.85;;;11.00;99.90;;;;;;4967228;28;20054;-78
2023/01/04 09:56:50;;;;;;;3.35;2.00;;;11.00;99.90;;;;;;4961022;28;20054;-78
2023/01/04 09:59:19;;;;;;;2.85;1.73;;;11.00;99.90;;;;;;4976257;28;20451;-78
2023/01/04 10:01:52;;;;;;;2.85;2.20;;;11.00;99.90;;;;;;4966579;28;20117;-77
2023/01/04 10:04:26;;;;;;;4.40;2.30;;;11.00;99.90;;;;;;5010802;28;20048;-82
2023/01/04 10:06:52;;;;;;;6.28;2.67;;;11.10;99.90;;;;;;4983791;28;20046;-76
2023/01/04 10:09:19;;;;;;;3.60;2.53;;;11.10;99.90;;;;;;4976604;28;20050;-77
2023/01/04 10:12:03;;;;;;;7.32;1.98;;;11.10;99.90;;;;;;4959110;28;20047;-77
2023/01/04 10:15:05;;;;;;;5.25;2.60;;;11.20;99.90;;;;;;4986305;28;20112;-77
2023/01/04 10:18:10;;;;;;;4.95;1.92;;;11.20;99.90;;;;;;4975311;28;20519;-77
2023/01/04 10:20:52;;;;;;;12.10;3.03;;;11.20;99.90;;;;;;4992525;28;20046;-78
2023/01/04 10:23:44;;;;;;;10.77;3.08;;;11.30;99.90;;;;;;4989473;28;20120;-77
2023/01/04 10:26:13;;;;;;;12.43;4.03;;;11.30;99.90;;;;;;4954878;28;20054;-77
2023/01/04 10:28:39;;;;;;;10.40;3.17;;;11.30;99.90;;;;;;4974717;28;20484;-76
2023/01/04 10:31:16;;;;;;;11.63;3.47;;;11.40;99.90;;;;;;4983229;28;20157;-79
2023/01/04 10:33:48;;;;;;;15.93;3.83;;;11.40;99.90;;;;;;4977356;28;20056;-78
2023/01/04 10:36:26;;;;;;;16.38;3.35;;;11.40;99.90;;;;;;4980129;28;20049;-81
2023/01/04 10:39:00;;;;;;;9.35;2.70;;;11.40;99.90;;;;;;4976951;28;20049;-78
2023/01/04 10:41:29;;;;;;;18.50;4.55;;;11.40;99.90;;;;;;4979997;28;20045;-83
2023/01/04 10:44:07;;;;;;;15.73;3.85;;;11.40;99.90;;;;;;5000971;28;20054;-79
2023/01/04 10:47:01;;;;;;;18.38;3.97;;;11.40;99.90;;;;;;4988897;28;20058;-77
2023/01/04 10:49:39;;;;;;;23.30;4.10;;;11.40;99.90;;;;;;4973938;28;20090;-83
2023/01/04 10:52:23;;;;;;;26.95;5.03;;;11.40;99.90;;;;;;5001139;28;20049;-77
2023/01/04 10:55:16;;;;;;;21.70;4.70;;;11.40;99.90;;;;;;4977048;28;20049;-77
2023/01/04 10:58:02;;;;;;;22.60;4.50;;;11.40;99.90;;;;;;4989599;28;20042;-78
2023/01/04 11:00:34;;;;;;;16.00;4.70;;;11.40;99.90;;;;;;4970300;28;20068;-81
2023/01/04 11:03:15;;;;;;;15.80;3.97;;;11.50;99.90;;;;;;4981685;28;20109;-76
2023/01/04 11:05:48;;;;;;;21.73;4.30;;;11.40;99.90;;;;;;4990840;28;20180;-77
2023/01/04 11:08:33;;;;;;;19.50;4.00;;;11.50;99.90;;;;;;5001784;28;20130;-78
2023/01/04 11:11:07;;;;;;;29.23;4.80;;;11.50;99.90;;;;;;4974104;28;20050;-77
2023/01/04 11:13:34;;;;;;;27.77;4.95;;;11.50;99.90;;;;;;4988252;28;20049;-80
2023/01/04 11:16:02;;;;;;;22.95;4.70;;;11.60;99.90;;;;;;4981520;28;20495;-77
2023/01/04 11:18:30;;;;;;;21.85;4.20;;;11.60;99.90;;;;;;4994165;28;20112;-78
2023/01/04 11:20:56;;;;;;;25.73;5.63;;;11.50;99.90;;;;;;4994285;28;20050;-77
2023/01/04 11:23:22;;;;;;;30.05;4.45;;;11.50;99.90;;;;;;4965043;28;20103;-77
2023/01/04 11:26:12;;;;;;;25.50;5.60;;;11.50;99.90;;;;;;4991341;28;20050;-78
2023/01/04 11:28:56;;;;;;;27.15;4.97;;;11.50;99.90;;;;;;4975080;28;20107;-78
2023/01/04 11:31:50;;;;;;;22.52;4.50;;;11.50;99.90;;;;;;4981931;28;20068;-76
2023/01/04 11:34:16;;;;;;;31.55;6.45;;;11.50;99.90;;;;;;4969459;28;20054;-77
2023/01/04 11:36:46;;;;;;;29.05;4.72;;;11.50;99.90;;;;;;4976224;28;20061;-79
2023/01/04 11:39:25;;;;;;;25.70;4.95;;;11.50;99.90;;;;;;4989338;28;20073;-78
2023/01/04 11:41:58;;;;;;;33.45;5.50;;;11.50;99.90;;;;;;4981401;28;20069;-78
2023/01/04 11:44:25;;;;;;;18.80;3.80;;;11.50;99.90;;;;;;4995129;28;20052;-80
2023/01/04 11:47:18;;;;;;;20.52;4.40;;;11.50;99.90;;;;;;4960766;28;20062;-79
2023/01/04 11:49:44;;;;;;;26.52;5.13;;;11.50;99.90;;;;;;4986371;28;20084;-82
2023/01/04 11:52:34;;;;;;;26.15;4.68;;;11.60;99.90;;;;;;4984659;28;20050;-79
2023/01/04 11:55:24;;;;;;;33.08;4.90;;;11.60;99.90;;;;;;4990924;28;20041;-79
2023/01/04 11:58:18;;;;;;;21.80;4.72;;;11.50;99.90;;;;;;4991223;28;20053;-80
2023/01/04 12:00:53;;;;;;;30.00;6.47;;;11.50;99.90;;;;;;4968191;28;20089;-79
2023/01/04 12:03:25;;;;;;;22.08;3.60;;;11.50;99.90;;;;;;4984847;28;20133;-78
2023/01/04 12:05:51;;;;;;;26.08;5.78;;;11.50;99.90;;;;;;4987032;28;20046;-79
2023/01/04 12:08:35;;;;;;;35.63;7.80;;;11.50;99.90;;;;;;4948825;28;20050;-79
2023/01/04 12:11:04;;;;;;;28.85;4.70;;;11.60;99.90;;;;;;4973468;28;20070;-79
2023/01/04 12:13:33;;;;;;;24.80;3.95;;;11.60;99.90;;;;;;4960781;28;20057;-85
2023/01/04 12:16:49;;;;;;;26.90;5.38;;;11.60;99.90;;;;;;4992558;28;20074;-79
2023/01/04 12:19:16;;;;;;;20.67;5.15;;;11.60;99.90;;;;;;4938051;28;20049;-80
2023/01/04 12:21:46;;;;;;;26.88;4.68;;;11.50;99.90;;;;;;4975876;28;20167;-80
2023/01/04 12:24:17;;;;;;;19.10;3.08;;;11.60;99.90;;;;;;4976513;28;20085;-80
2023/01/04 12:26:44;;;;;;;23.42;5.50;;;11.50;99.90;;;;;;4975534;28;20057;-80
2023/01/04 12:29:22;;;;;;;16.02;4.30;;;11.50;99.90;;;;;;4978887;28;20142;-79
2023/01/04 12:32:16;;;;;;;12.18;3.13;;;11.50;99.90;;;;;;4977913;28;20053;-82
2023/01/04 12:34:45;;;;;;;15.63;3.72;;;11.50;99.90;;;;;;5002922;28;20049;-80
2023/01/04 12:37:49;;;;;;;15.27;3.67;;;11.50;99.90;;;;;;4977788;28;20042;-78
2023/01/04 12:40:45;;;;;;;13.10;2.42;;;11.60;99.90;;;;;;4981258;28;20045;-79
2023/01/04 12:43:14;;;;;;;10.55;1.85;;;11.50;99.90;;;;;;4989439;28;20069;-80
2023/01/04 12:45:41;;;;;;;6.07;1.90;;;11.50;99.90;;;;;;4985253;28;20135;-83
2023/01/04 12:51:27;;;;;;;9.13;3.33;;;11.50;99.90;;;;;;4941793;28;20050;-81
2023/01/04 12:54:02;;;;;;;13.65;7.75;;;11.60;99.90;;;;;;4942301;28;20050;-78
2023/01/04 12:57:05;;;;;;;10.57;6.67;;;11.60;99.90;;;;;;4964982;28;20120;-79
2023/01/04 12:59:34;;;;;;;14.35;6.65;;;11.50;99.90;;;;;;4993181;28;20289;-79
2023/01/04 13:02:19;;;;;;;11.07;3.55;;;11.50;99.90;;;;;;4979830;28;20082;-79
2023/01/04 13:04:46;;;;;;;6.13;1.90;;;11.60;99.90;;;;;;4973569;28;20051;-87
2023/01/04 13:07:28;;;;;;;8.75;2.20;;;11.50;99.90;;;;;;4970141;28;20070;-79
2023/01/04 13:10:18;;;;;;;10.98;1.92;;;11.50;99.90;;;;;;4984366;28;20058;-79
2023/01/04 13:13:12;;;;;;;14.32;3.83;;;11.60;99.90;;;;;;4983785;28;20053;-80
2023/01/04 13:16:05;;;;;;;21.15;3.50;;;11.50;99.90;;;;;;4979848;28;20049;-80
2023/01/04 13:18:36;;;;;;;11.88;4.13;;;11.50;99.90;;;;;;4994627;28;20052;-78
2023/01/04 13:21:11;;;;;;;27.95;7.68;;;11.50;99.90;;;;;;4976993;28;20479;-80
2023/01/04 13:23:38;;;;;;;10.10;3.28;;;11.50;99.90;;;;;;4993367;28;20080;-78
2023/01/04 13:26:41;;;;;;;14.48;2.88;;;11.50;99.90;;;;;;4996132;28;20132;-78
2023/01/04 13:29:18;;;;;;;17.40;4.90;;;11.50;99.90;;;;;;4971325;28;20061;-79
2023/01/04 13:31:54;;;;;;;;;;;11.50;99.90;;;;;;5004108;28;20144;-79
2023/01/04 13:34:21;;;;;;;20.17;4.03;;;11.50;99.90;;;;;;4969518;28;20016;-79
2023/01/04 13:37:17;;;;;;;15.45;3.35;;;11.50;99.90;;;;;;4975739;28;20046;-85
2023/01/04 13:39:47;;;;;;;24.77;3.67;;;11.50;99.90;;;;;;4990449;28;20056;-79
2023/01/04 13:42:20;;;;;;;23.00;3.80;;;11.50;99.90;;;;;;4977641;28;20046;-79
2023/01/04 13:45:16;;;;;;;23.65;4.13;;;11.50;99.90;;;;;;4991407;28;20050;-79
2023/01/04 13:47:43;;;;;;;15.27;3.37;;;11.50;99.90;;;;;;4975300;28;20105;-79
2023/01/04 13:50:33;;;;;;;24.50;4.78;;;11.50;99.90;;;;;;4980229;28;20053;-79